sensor_id;sensor_type;location;lat;lon;timestamp;pressure;altitude;pressure_sealevel;temperature;humidity
20394;BME280;10356;50.544;9.642;2023-03-20T00:00:24;98375.28;;;8.09;100.00
20394;BME280;10356;50.544;9.642;2023-03-20T00:02:53;98381.31;;;8.09;100.00
20394;BME280;10356;50.544;9.642;2023-03-20T00:05:21;98381.44;;;8.08;100.00
20394;BME280;10356;50.544;9.642;2023-03-20T00:07:49;98378.09;;;8.06;100.00
20394;BME280;10356;50.544;9.642;2023-03-20T00:10:17;98378.84;;;8.08;100.00
20394;BME280;10356;50.544;9.642;2023-03-20T00:12:46;98388.50;;;8.06;100.00
20394;BME280;10356;50.544;9.642;2023-03-20T00:15:35;98388.38;;;8.07;100.00
20394;BME280;10356;50.544;9.642;2023-03-20T00:18:02;98394.41;;;8.08;100.00
20394;BME280;10356;50.544;9.642;2023-03-20T00:20:29;98390.69;;;8.12;100.00
20394;BME280;10356;50.544;9.642;2023-03-20T00:22:55;98395.03;;;8.11;100.00
20394;BME280;10356;50.544;9.642;2023-03-20T00:25:23;98399.38;;;8.11;100.00
20394;BME280;10356;50.544;9.642;2023-03-20T00:27:52;98396.06;;;8.09;100.00
20394;BME280;10356;50.544;9.642;2023-03-20T00:30:24;98393.28;;;8.12;100.00
20394;BME280;10356;50.544;9.642;2023-03-20T00:32:53;98398.53;;;8.10;100.00
20394;BME280;10356;50.544;9.642;2023-03-20T00:35:24;98397.75;;;8.10;100.00
20394;BME280;10356;50.544;9.642;2023-03-20T00:37:52;98391.72;;;8.09;100.00
20394;BME280;10356;50.544;9.642;2023-03-20T00:40:19;98388.38;;;8.07;100.00
20394;BME280;10356;50.544;9.642;2023-03-20T00:42:48;98397.91;;;8.07;100.00
20394;BME280;10356;50.544;9.642;2023-03-20T00:45:19;98392.84;;;8.05;100.00
20394;BME280;10356;50.544;9.642;2023-03-20T00:47:47;98397.09;;;8.06;100.00
20394;BME280;10356;50.544;9.642;2023-03-20T00:50:17;98398.94;;;8.04;100.00
20394;BME280;10356;50.544;9.642;2023-03-20T00:52:45;98395.53;;;8.04;100.00
20394;BME280;10356;50.544;9.642;2023-03-20T00:55:11;98395.44;;;8.05;100.00
20394;BME280;10356;50.544;9.642;2023-03-20T00:57:44;98387.75;;;8.04;100.00
20394;BME280;10356;50.544;9.642;2023-03-20T01:00:20;98396.28;;;8.06;100.00
20394;BME280;10356;50.544;9.642;2023-03-20T01:02:48;98394.59;;;8.05;100.00
20394;BME280;10356;50.544;9.642;2023-03-20T01:05:16;98401.66;;;8.03;100.00
20394;BME280;10356;50.544;9.642;2023-03-20T01:07:42;98407.78;;;8.02;100.00
20394;BME280;10356;50.544;9.642;2023-03-20T01:10:10;98411.84;;;8.06;100.00
20394;BME280;10356;50.544;9.642;2023-03-20T01:12:37;98406.00;;;8.02;100.00
20394;BME280;10356;50.544;9.642;2023-03-20T01:15:15;98410.38;;;8.02;100.00
20394;BME280;10356;50.544;9.642;2023-03-20T01:17:43;98405.38;;;7.99;100.00
20394;BME280;10356;50.544;9.642;2023-03-20T01:20:14;98413.16;;;7.99;100.00
20394;BME280;10356;50.544;9.642;2023-03-20T01:22:41;98407.22;;;7.97;100.00
20394;BME280;10356;50.544;9.642;2023-03-20T01:25:08;98409.81;;;7.97;100.00
20394;BME280;10356;50.544;9.642;2023-03-20T01:27:35;98415.13;;;7.95;100.00
20394;BME280;10356;50.544;9.642;2023-03-20T01:30:02;98416.03;;;7.94;100.00
20394;BME280;10356;50.544;9.642;2023-03-20T01:32:29;98413.38;;;7.96;100.00
20394;BME280;10356;50.544;9.642;2023-03-20T01:34:57;98405.59;;;7.96;100.00
20394;BME280;10356;50.544;9.642;2023-03-20T01:37:25;98411.56;;;7.96;100.00
20394;BME280;10356;50.544;9.642;2023-03-20T01:39:52;98406.38;;;7.96;100.00
20394;BME280;10356;50.544;9.642;2023-03-20T01:42:20;98404.75;;;7.95;100.00
20394;BME280;10356;50.544;9.642;2023-03-20T01:44:47;98407.22;;;7.97;100.00
20394;BME280;10356;50.544;9.642;2023-03-20T01:47:16;98411.56;;;7.96;100.00
20394;BME280;10356;50.544;9.642;2023-03-20T01:50:21;98415.00;;;7.97;100.00
20394;BME280;10356;50.544;9.642;2023-03-20T01:52:50;98414.69;;;7.89;100.00
20394;BME280;10356;50.544;9.642;2023-03-20T01:55:18;98417.03;;;7.79;100.00
20394;BME280;10356;50.544;9.642;2023-03-20T01:57:45;98409.88;;;7.83;100.00
20394;BME280;10356;50.544;9.642;2023-03-20T02:00:14;98401.19;;;7.84;100.00
20394;BME280;10356;50.544;9.642;2023-03-20T02:02:43;98400.53;;;7.80;100.00
20394;BME280;10356;50.544;9.642;2023-03-20T02:05:11;98399.50;;;7.83;100.00
20394;BME280;10356;50.544;9.642;2023-03-20T02:07:44;98403.84;;;7.82;100.00
20394;BME280;10356;50.544;9.642;2023-03-20T02:10:15;98400.44;;;7.82;100.00
20394;BME280;10356;50.544;9.642;2023-03-20T02:12:43;98399.50;;;7.83;100.00
20394;BME280;10356;50.544;9.642;2023-03-20T02:15:11;98401.19;;;7.84;100.00
20394;BME280;10356;50.544;9.642;2023-03-20T02:17:40;98395.78;;;7.87;100.00
20394;BME280;10356;50.544;9.642;2023-03-20T02:20:14;98398.19;;;7.90;100.00
20394;BME280;10356;50.544;9.642;2023-03-20T02:22:59;98397.25;;;7.91;100.00
20394;BME280;10356;50.544;9.642;2023-03-20T02:25:57;98402.25;;;7.94;100.00
20394;BME280;10356;50.544;9.642;2023-03-20T02:32:10;98402.03;;;7.97;100.00
20394;BME280;10356;50.544;9.642;2023-03-20T02:35:04;98406.59;;;7.93;100.00
20394;BME280;10356;50.544;9.642;2023-03-20T02:38:17;98404.84;;;7.94;100.00
20394;BME280;10356;50.544;9.642;2023-03-20T02:40:52;98405.03;;;7.91;100.00
20394;BME280;10356;50.544;9.642;2023-03-20T02:43:27;98405.97;;;7.90;100.00
20394;BME280;10356;50.544;9.642;2023-03-20T02:46:00;98416.34;;;7.90;100.00
20394;BME280;10356;50.544;9.642;2023-03-20T02:48:38;98419.03;;;7.88;100.00
20394;BME280;10356;50.544;9.642;2023-03-20T02:51:11;98411.97;;;7.90;100.00
20394;BME280;10356;50.544;9.642;2023-03-20T02:53:49;98419.69;;;7.92;100.00
20394;BME280;10356;50.544;9.642;2023-03-20T02:56:22;98421.31;;;7.93;100.00
20394;BME280;10356;50.544;9.642;2023-03-20T02:58:55;98409.09;;;7.95;100.00
20394;BME280;10356;50.544;9.642;2023-03-20T03:01:30;98408.06;;;7.97;100.00
20394;BME280;10356;50.544;9.642;2023-03-20T03:04:01;98400.41;;;7.96;100.00
20394;BME280;10356;50.544;9.642;2023-03-20T03:06:30;98393.53;;;7.95;100.00
20394;BME280;10356;50.544;9.642;2023-03-20T03:09:01;98395.22;;;7.96;100.00
20394;BME280;10356;50.544;9.642;2023-03-20T03:11:29;98407.22;;;7.97;100.00
20394;BME280;10356;50.544;9.642;2023-03-20T03:13:58;98404.44;;;8.00;100.00
20394;BME280;10356;50.544;9.642;2023-03-20T03:16:28;98405.91;;;8.04;100.00
20394;BME280;10356;50.544;9.642;2023-03-20T03:19:02;98408.31;;;8.07;100.00
20394;BME280;10356;50.544;9.642;2023-03-20T03:21:31;98414.34;;;8.07;100.00
20394;BME280;10356;50.544;9.642;2023-03-20T03:24:00;98420.88;;;8.13;100.00
20394;BME280;10356;50.544;9.642;2023-03-20T03:26:31;98415.06;;;8.09;100.00
20394;BME280;10356;50.544;9.642;2023-03-20T03:29:01;98421.16;;;8.08;100.00
20394;BME280;10356;50.544;9.642;2023-03-20T03:31:30;98422.00;;;8.09;100.00
20394;BME280;10356;50.544;9.642;2023-03-20T03:33:58;98424.31;;;8.13;100.00
20394;BME280;10356;50.544;9.642;2023-03-20T03:36:35;98432.00;;;8.15;100.00
20394;BME280;10356;50.544;9.642;2023-03-20T03:39:10;98428.09;;;8.22;100.00
20394;BME280;10356;50.544;9.642;2023-03-20T03:41:40;98427.94;;;8.11;100.00
20394;BME280;10356;50.544;9.642;2023-03-20T03:44:12;98426.03;;;8.27;100.00
20394;BME280;10356;50.544;9.642;2023-03-20T03:46:41;98435.41;;;8.29;100.00
20394;BME280;10356;50.544;9.642;2023-03-20T03:49:13;98441.59;;;8.27;100.00
20394;BME280;10356;50.544;9.642;2023-03-20T03:51:43;98431.59;;;8.21;100.00
20394;BME280;10356;50.544;9.642;2023-03-20T03:54:15;98431.81;;;8.18;100.00
20394;BME280;10356;50.544;9.642;2023-03-20T03:56:44;98435.53;;;8.14;100.00
20394;BME280;10356;50.544;9.642;2023-03-20T03:59:16;98432.22;;;8.12;100.00
20394;BME280;10356;50.544;9.642;2023-03-20T04:01:46;98428.03;;;8.09;100.00
20394;BME280;10356;50.544;9.642;2023-03-20T04:04:15;98442.03;;;8.07;100.00
20394;BME280;10356;50.544;9.642;2023-03-20T04:06:42;98445.47;;;8.07;100.00
20394;BME280;10356;50.544;9.642;2023-03-20T04:09:09;98438.59;;;8.06;100.00
20394;BME280;10356;50.544;9.642;2023-03-20T04:11:37;98435.81;;;8.09;100.00
20394;BME280;10356;50.544;9.642;2023-03-20T04:14:04;98435.72;;;8.11;100.00
20394;BME280;10356;50.544;9.642;2023-03-20T04:16:30;98428.88;;;8.10;100.00
20394;BME280;10356;50.544;9.642;2023-03-20T04:18:57;98437.56;;;8.09;100.00
20394;BME280;10356;50.544;9.642;2023-03-20T04:21:24;98435.94;;;8.08;100.00
20394;BME280;10356;50.544;9.642;2023-03-20T04:23:50;98440.38;;;8.06;100.00
20394;BME280;10356;50.544;9.642;2023-03-20T04:26:17;98434.25;;;8.07;100.00
20394;BME280;10356;50.544;9.642;2023-03-20T04:28:44;98446.31;;;8.08;100.00
20394;BME280;10356;50.544;9.642;2023-03-20T04:31:11;98447.97;;;8.09;100.00
20394;BME280;10356;50.544;9.642;2023-03-20T04:33:38;98447.78;;;8.12;100.00
20394;BME280;10356;50.544;9.642;2023-03-20T04:36:06;98452.97;;;8.12;100.00
20394;BME280;10356;50.544;9.642;2023-03-20T04:38:32;98457.94;;;8.15;100.00
20394;BME280;10356;50.544;9.642;2023-03-20T04:40:59;98459.63;;;8.16;100.00
20394;BME280;10356;50.544;9.642;2023-03-20T04:43:25;98464.72;;;8.17;100.00
20394;BME280;10356;50.544;9.642;2023-03-20T04:45:53;98470.63;;;8.19;100.00
20394;BME280;10356;50.544;9.642;2023-03-20T04:48:20;98470.63;;;8.19;100.00
20394;BME280;10356;50.544;9.642;2023-03-20T04:50:46;98466.28;;;8.20;100.00
20394;BME280;10356;50.544;9.642;2023-03-20T04:53:15;98463.59;;;8.21;100.00
20394;BME280;10356;50.544;9.642;2023-03-20T04:55:41;98459.22;;;8.22;100.00
20394;BME280;10356;50.544;9.642;2023-03-20T04:58:08;98459.03;;;8.25;100.00
20394;BME280;10356;50.544;9.642;2023-03-20T05:00:34;98465.81;;;8.27;100.00
20394;BME280;10356;50.544;9.642;2023-03-20T05:03:02;98474.97;;;8.33;100.00
20394;BME280;10356;50.544;9.642;2023-03-20T05:05:29;98470.41;;;8.36;100.00
20394;BME280;10356;50.544;9.642;2023-03-20T05:07:56;98476.31;;;8.38;100.00
20394;BME280;10356;50.544;9.642;2023-03-20T05:10:22;98474.56;;;8.39;100.00
20394;BME280;10356;50.544;9.642;2023-03-20T05:12:49;98477.78;;;8.42;100.00
20394;BME280;10356;50.544;9.642;2023-03-20T05:15:15;98478.63;;;8.43;100.00
20394;BME280;10356;50.544;9.642;2023-03-20T05:17:42;98475.84;;;8.46;100.00
20394;BME280;10356;50.544;9.642;2023-03-20T05:20:10;98478.22;;;8.49;100.00
20394;BME280;10356;50.544;9.642;2023-03-20T05:22:37;98476.16;;;8.54;100.00
20394;BME280;10356;50.544;9.642;2023-03-20T05:25:04;98472.63;;;8.55;100.00
20394;BME280;10356;50.544;9.642;2023-03-20T05:27:30;98471.72;;;8.56;100.00
20394;BME280;10356;50.544;9.642;2023-03-20T05:29:57;98471.72;;;8.56;100.00
20394;BME280;10356;50.544;9.642;2023-03-20T05:32:23;98465.56;;;8.57;100.00
20394;BME280;10356;50.544;9.642;2023-03-20T05:34:50;98465.38;;;8.60;100.00
20394;BME280;10356;50.544;9.642;2023-03-20T05:37:18;98466.13;;;8.62;100.00
20394;BME280;10356;50.544;9.642;2023-03-20T05:39:44;98463.50;;;8.62;100.00
20394;BME280;10356;50.544;9.642;2023-03-20T05:42:11;98465.78;;;8.67;100.00
20394;BME280;10356;50.544;9.642;2023-03-20T05:44:37;98466.44;;;8.70;100.00
20394;BME280;10356;50.544;9.642;2023-03-20T05:47:05;98464.47;;;8.74;100.00
20394;BME280;10356;50.544;9.642;2023-03-20T05:49:31;98469.97;;;8.82;100.00
20394;BME280;10356;50.544;9.642;2023-03-20T05:51:58;98472.69;;;8.80;100.00
20394;BME280;10356;50.544;9.642;2023-03-20T05:54:26;98469.75;;;8.85;100.00
20394;BME280;10356;50.544;9.642;2023-03-20T05:56:52;98468.00;;;8.85;100.00
20394;BME280;10356;50.544;9.642;2023-03-20T05:59:18;98463.34;;;8.90;100.00
20394;BME280;10356;50.544;9.642;2023-03-20T06:01:45;98459.78;;;8.91;100.00
20394;BME280;10356;50.544;9.642;2023-03-20T06:04:12;98462.19;;;8.94;100.00
20394;BME280;10356;50.544;9.642;2023-03-20T06:06:38;98449.09;;;8.96;100.00
20394;BME280;10356;50.544;9.642;2023-03-20T06:09:06;98457.50;;;8.99;100.00
20394;BME280;10356;50.544;9.642;2023-03-20T06:11:34;98454.59;;;9.04;100.00
20394;BME280;10356;50.544;9.642;2023-03-20T06:14:00;98460.63;;;9.04;100.00
20394;BME280;10356;50.544;9.642;2023-03-20T06:16:27;98460.22;;;9.10;100.00
20394;BME280;10356;50.544;9.642;2023-03-20T06:18:53;98461.44;;;9.17;100.00
20394;BME280;10356;50.544;9.642;2023-03-20T06:21:20;98464.88;;;9.18;100.00
20394;BME280;10356;50.544;9.642;2023-03-20T06:23:46;98468.81;;;9.23;100.00
20394;BME280;10356;50.544;9.642;2023-03-20T06:26:12;98471.22;;;9.26;100.00
20394;BME280;10356;50.544;9.642;2023-03-20T06:28:40;98474.75;;;9.25;100.00
20394;BME280;10356;50.544;9.642;2023-03-20T06:31:07;98484.97;;;9.28;100.00
20394;BME280;10356;50.544;9.642;2023-03-20T06:33:34;98485.16;;;9.25;100.00
20394;BME280;10356;50.544;9.642;2023-03-20T06:36:02;98483.50;;;9.24;100.00
20394;BME280;10356;50.544;9.642;2023-03-20T06:38:29;98478.31;;;9.24;100.00
20394;BME280;10356;50.544;9.642;2023-03-20T06:40:55;98462.09;;;9.21;100.00
20394;BME280;10356;50.544;9.642;2023-03-20T06:43:22;98473.72;;;9.28;100.00
20394;BME280;10356;50.544;9.642;2023-03-20T06:45:50;98477.97;;;9.42;100.00
20394;BME280;10356;50.544;9.642;2023-03-20T06:48:16;98482.25;;;9.43;100.00
20394;BME280;10356;50.544;9.642;2023-03-20T06:50:46;98482.25;;;9.43;100.00
20394;BME280;10356;50.544;9.642;2023-03-20T06:53:12;98480.97;;;9.48;100.00
20394;BME280;10356;50.544;9.642;2023-03-20T06:55:39;98477.03;;;9.55;100.00
20394;BME280;10356;50.544;9.642;2023-03-20T06:58:06;98472.56;;;9.57;100.00
20394;BME280;10356;50.544;9.642;2023-03-20T07:00:32;98485.22;;;9.62;100.00
20394;BME280;10356;50.544;9.642;2023-03-20T07:03:00;98485.94;;;9.64;100.00
20394;BME280;10356;50.544;9.642;2023-03-20T07:05:26;98487.63;;;9.65;100.00
20394;BME280;10356;50.544;9.642;2023-03-20T07:07:53;98488.13;;;9.70;100.00
20394;BME280;10356;50.544;9.642;2023-03-20T07:10:19;98493.00;;;9.74;100.00
20394;BME280;10356;50.544;9.642;2023-03-20T07:12:46;98493.41;;;9.81;100.00
20394;BME280;10356;50.544;9.642;2023-03-20T07:15:13;98502.13;;;9.80;100.00
20394;BME280;10356;50.544;9.642;2023-03-20T07:17:40;98509.22;;;9.78;100.00
20394;BME280;10356;50.544;9.642;2023-03-20T07:20:09;98511.75;;;9.79;100.00
20394;BME280;10356;50.544;9.642;2023-03-20T07:22:36;98519.44;;;9.81;100.00
20394;BME280;10356;50.544;9.642;2023-03-20T07:25:03;98521.81;;;9.84;100.00
20394;BME280;10356;50.544;9.642;2023-03-20T07:27:30;98525.50;;;9.69;100.00
20394;BME280;10356;50.544;9.642;2023-03-20T07:29:56;98524.88;;;9.65;100.00
20394;BME280;10356;50.544;9.642;2023-03-20T07:32:23;98533.19;;;9.58;100.00
20394;BME280;10356;50.544;9.642;2023-03-20T07:34:49;98529.88;;;9.56;100.00
20394;BME280;10356;50.544;9.642;2023-03-20T07:37:17;98532.38;;;9.57;100.00
20394;BME280;10356;50.544;9.642;2023-03-20T07:39:43;98532.56;;;9.67;100.00
20394;BME280;10356;50.544;9.642;2023-03-20T07:42:10;98533.19;;;9.70;100.00
20394;BME280;10356;50.544;9.642;2023-03-20T07:44:38;98526.50;;;9.79;100.00
20394;BME280;10356;50.544;9.642;2023-03-20T07:47:04;98529.41;;;9.87;100.00
20394;BME280;10356;50.544;9.642;2023-03-20T07:49:31;98532.06;;;9.98;100.00
20394;BME280;10356;50.544;9.642;2023-03-20T07:51:58;98531.44;;;10.07;100.00
20394;BME280;10356;50.544;9.642;2023-03-20T07:54:26;98531.25;;;10.10;100.00
20394;BME280;10356;50.544;9.642;2023-03-20T07:56:52;98535.69;;;10.08;100.00
20394;BME280;10356;50.544;9.642;2023-03-20T07:59:19;98543.81;;;10.16;100.00
20394;BME280;10356;50.544;9.642;2023-03-20T08:01:45;98539.97;;;10.22;100.00
20394;BME280;10356;50.544;9.642;2023-03-20T08:04:12;98535.38;;;10.25;100.00
20394;BME280;10356;50.544;9.642;2023-03-20T08:06:38;98534.09;;;10.31;100.00
20394;BME280;10356;50.544;9.642;2023-03-20T08:09:05;98536.81;;;10.29;100.00
20394;BME280;10356;50.544;9.642;2023-03-20T08:11:33;98532.66;;;10.27;100.00
20394;BME280;10356;50.544;9.642;2023-03-20T08:14:00;98531.09;;;10.24;100.00
20394;BME280;10356;50.544;9.642;2023-03-20T08:16:26;98529.72;;;10.31;100.00
20394;BME280;10356;50.544;9.642;2023-03-20T08:18:53;98528.44;;;10.37;100.00
20394;BME280;10356;50.544;9.642;2023-03-20T08:21:25;98532.63;;;10.39;100.00
20394;BME280;10356;50.544;9.642;2023-03-20T08:23:52;98540.03;;;10.33;100.00
20394;BME280;10356;50.544;9.642;2023-03-20T08:26:18;98541.19;;;10.29;100.00
20394;BME280;10356;50.544;9.642;2023-03-20T08:28:47;98540.97;;;10.32;100.00
20394;BME280;10356;50.544;9.642;2023-03-20T08:31:14;98552.66;;;10.26;100.00
20394;BME280;10356;50.544;9.642;2023-03-20T08:33:42;98545.56;;;10.28;100.00
20394;BME280;10356;50.544;9.642;2023-03-20T08:36:09;98547.44;;;10.26;100.00
20394;BME280;10356;50.544;9.642;2023-03-20T08:38:35;98542.44;;;10.36;100.00
20394;BME280;10356;50.544;9.642;2023-03-20T08:41:02;98540.53;;;10.38;100.00
20394;BME280;10356;50.544;9.642;2023-03-20T08:43:28;98541.38;;;10.38;100.00
20394;BME280;10356;50.544;9.642;2023-03-20T08:45:56;98544.34;;;10.45;100.00
20394;BME280;10356;50.544;9.642;2023-03-20T08:48:23;98549.25;;;10.49;100.00
20394;BME280;10356;50.544;9.642;2023-03-20T08:50:50;98541.25;;;10.63;100.00
20394;BME280;10356;50.544;9.642;2023-03-20T08:53:17;98558.94;;;10.71;100.00
20394;BME280;10356;50.544;9.642;2023-03-20T08:55:46;98556.44;;;10.69;100.00
20394;BME280;10356;50.544;9.642;2023-03-20T08:58:13;98566.66;;;10.72;100.00
20394;BME280;10356;50.544;9.642;2023-03-20T09:00:40;98565.66;;;10.62;100.00
20394;BME280;10356;50.544;9.642;2023-03-20T09:03:10;98562.34;;;10.60;100.00
20394;BME280;10356;50.544;9.642;2023-03-20T09:05:38;98564.44;;;10.55;100.00
20394;BME280;10356;50.544;9.642;2023-03-20T09:08:05;98565.38;;;10.54;100.00
20394;BME280;10356;50.544;9.642;2023-03-20T09:10:32;98575.09;;;10.52;100.00
20394;BME280;10356;50.544;9.642;2023-03-20T09:12:59;98569.88;;;10.52;100.00
20394;BME280;10356;50.544;9.642;2023-03-20T09:15:26;98581.66;;;10.45;100.00
20394;BME280;10356;50.544;9.642;2023-03-20T09:17:53;98574.44;;;10.49;100.00
20394;BME280;10356;50.544;9.642;2023-03-20T09:20:21;98572.75;;;10.60;100.00
20394;BME280;10356;50.544;9.642;2023-03-20T09:22:47;98574.41;;;10.61;100.00
20394;BME280;10356;50.544;9.642;2023-03-20T09:25:14;98569.91;;;10.63;100.00
20394;BME280;10356;50.544;9.642;2023-03-20T09:27:40;98572.09;;;10.69;100.00
20394;BME280;10356;50.544;9.642;2023-03-20T09:30:09;98567.25;;;10.76;100.00
20394;BME280;10356;50.544;9.642;2023-03-20T09:32:35;98575.69;;;10.79;100.00
20394;BME280;10356;50.544;9.642;2023-03-20T09:35:02;98574.75;;;10.80;100.00
20394;BME280;10356;50.544;9.642;2023-03-20T09:37:30;98584.66;;;10.75;100.00
20394;BME280;10356;50.544;9.642;2023-03-20T09:39:57;98571.19;;;10.81;100.00
20394;BME280;10356;50.544;9.642;2023-03-20T09:42:31;98574.13;;;10.77;100.00
20394;BME280;10356;50.544;9.642;2023-03-20T09:45:08;98576.00;;;10.75;100.00
20394;BME280;10356;50.544;9.642;2023-03-20T09:47:43;98585.19;;;10.80;100.00
20394;BME280;10356;50.544;9.642;2023-03-20T09:50:20;98577.25;;;10.82;100.00
20394;BME280;10356;50.544;9.642;2023-03-20T09:52:58;98579.00;;;10.81;100.00
20394;BME280;10356;50.544;9.642;2023-03-20T09:55:33;98585.09;;;10.93;100.00
20394;BME280;10356;50.544;9.642;2023-03-20T09:58:11;98580.41;;;11.09;100.00
20394;BME280;10356;50.544;9.642;2023-03-20T10:00:39;98589.31;;;11.18;100.00
20394;BME280;10356;50.544;9.642;2023-03-20T10:03:16;98579.94;;;11.15;97.06
20394;BME280;10356;50.544;9.642;2023-03-20T10:05:45;98582.41;;;11.06;97.01
20394;BME280;10356;50.544;9.642;2023-03-20T10:08:15;98574.31;;;10.97;96.17
20394;BME280;10356;50.544;9.642;2023-03-20T10:10:49;98577.19;;;10.94;95.86
20394;BME280;10356;50.544;9.642;2023-03-20T10:13:34;98592.31;;;10.89;97.14
20394;BME280;10356;50.544;9.642;2023-03-20T10:16:08;98589.09;;;10.86;98.62
20394;BME280;10356;50.544;9.642;2023-03-20T10:18:42;98581.75;;;10.91;96.47
20394;BME280;10356;50.544;9.642;2023-03-20T10:21:14;98578.81;;;10.95;97.37
20394;BME280;10356;50.544;9.642;2023-03-20T10:23:48;98579.34;;;11.12;97.81
20394;BME280;10356;50.544;9.642;2023-03-20T10:26:21;98577.13;;;11.18;97.25
20394;BME280;10356;50.544;9.642;2023-03-20T10:28:51;98579.53;;;11.32;96.78
20394;BME280;10356;50.544;9.642;2023-03-20T10:31:31;98591.28;;;11.38;96.92
20394;BME280;10356;50.544;9.642;2023-03-20T10:34:07;98588.31;;;11.42;95.12
20394;BME280;10356;50.544;9.642;2023-03-20T10:36:47;98578.97;;;11.51;94.09
20394;BME280;10356;50.544;9.642;2023-03-20T10:39:21;98580.16;;;11.47;92.40
20394;BME280;10356;50.544;9.642;2023-03-20T10:41:57;98574.00;;;11.59;92.98
20394;BME280;10356;50.544;9.642;2023-03-20T10:44:30;98574.28;;;11.67;93.13
20394;BME280;10356;50.544;9.642;2023-03-20T10:46:59;98574.75;;;11.72;93.61
20394;BME280;10356;50.544;9.642;2023-03-20T10:49:32;98580.59;;;11.75;92.54
20394;BME280;10356;50.544;9.642;2023-03-20T10:52:02;98576.16;;;11.65;92.11
20394;BME280;10356;50.544;9.642;2023-03-20T10:54:33;98573.09;;;11.71;91.72
20394;BME280;10356;50.544;9.642;2023-03-20T10:57:02;98568.09;;;11.90;91.04
20394;BME280;10356;50.544;9.642;2023-03-20T10:59:33;98565.03;;;12.07;90.91
20394;BME280;10356;50.544;9.642;2023-03-20T11:02:08;98563.31;;;12.28;88.60
20394;BME280;10356;50.544;9.642;2023-03-20T11:04:35;98568.25;;;12.53;86.67
20394;BME280;10356;50.544;9.642;2023-03-20T11:07:07;98575.53;;;12.82;83.54
20394;BME280;10356;50.544;9.642;2023-03-20T11:09:38;98567.88;;;13.01;81.30
20394;BME280;10356;50.544;9.642;2023-03-20T11:12:12;98562.47;;;13.13;80.51
20394;BME280;10356;50.544;9.642;2023-03-20T11:14:40;98561.00;;;13.20;80.45
20394;BME280;10356;50.544;9.642;2023-03-20T11:17:07;98561.19;;;13.49;80.15
20394;BME280;10356;50.544;9.642;2023-03-20T11:19:35;98559.91;;;13.43;73.90
20394;BME280;10356;50.544;9.642;2023-03-20T11:22:07;98557.78;;;13.58;72.37
20394;BME280;10356;50.544;9.642;2023-03-20T11:24:36;98551.25;;;13.73;73.06
20394;BME280;10356;50.544;9.642;2023-03-20T11:27:09;98560.91;;;13.73;71.76
20394;BME280;10356;50.544;9.642;2023-03-20T11:29:36;98558.75;;;13.57;70.42
20394;BME280;10356;50.544;9.642;2023-03-20T11:32:06;98553.50;;;13.27;72.62
20394;BME280;10356;50.544;9.642;2023-03-20T11:34:36;98553.22;;;13.30;73.01
20394;BME280;10356;50.544;9.642;2023-03-20T11:37:12;98555.16;;;12.96;72.65
20394;BME280;10356;50.544;9.642;2023-03-20T11:39:53;98556.72;;;12.88;74.69
20394;BME280;10356;50.544;9.642;2023-03-20T11:42:24;98556.66;;;12.78;76.30
20394;BME280;10356;50.544;9.642;2023-03-20T11:44:59;98559.66;;;12.74;75.85
20394;BME280;10356;50.544;9.642;2023-03-20T11:47:27;98553.66;;;12.83;77.83
20394;BME280;10356;50.544;9.642;2023-03-20T11:49:56;98545.19;;;12.90;77.18
20394;BME280;10356;50.544;9.642;2023-03-20T11:52:24;98544.13;;;12.93;78.10
20394;BME280;10356;50.544;9.642;2023-03-20T11:54:54;98541.59;;;12.91;76.75
20394;BME280;10356;50.544;9.642;2023-03-20T11:57:30;98546.03;;;12.91;77.30
20394;BME280;10356;50.544;9.642;2023-03-20T12:00:00;98536.53;;;12.79;76.71
20394;BME280;10356;50.544;9.642;2023-03-20T12:02:27;98539.38;;;12.87;76.61
20394;BME280;10356;50.544;9.642;2023-03-20T12:04:58;98533.91;;;12.90;77.13
20394;BME280;10356;50.544;9.642;2023-03-20T12:07:28;98524.59;;;12.97;76.04
20394;BME280;10356;50.544;9.642;2023-03-20T12:09:58;98522.78;;;12.97;75.58
20394;BME280;10356;50.544;9.642;2023-03-20T12:12:35;98528.03;;;12.97;75.97
20394;BME280;10356;50.544;9.642;2023-03-20T12:15:09;98524.47;;;12.98;75.21
20394;BME280;10356;50.544;9.642;2023-03-20T12:17:46;98522.09;;;12.95;74.86
20394;BME280;10356;50.544;9.642;2023-03-20T12:20:30;98512.47;;;12.96;74.10
20394;BME280;10356;50.544;9.642;2023-03-20T12:23:03;98509.41;;;12.91;73.87
20394;BME280;10356;50.544;9.642;2023-03-20T12:25:36;98504.59;;;13.07;74.34
20394;BME280;10356;50.544;9.642;2023-03-20T12:28:11;98500.56;;;13.23;74.38
20394;BME280;10356;50.544;9.642;2023-03-20T12:30:50;98499.16;;;13.49;74.66
20394;BME280;10356;50.544;9.642;2023-03-20T12:33:30;98493.56;;;13.94;72.11
20394;BME280;10356;50.544;9.642;2023-03-20T12:36:00;98496.72;;;14.37;69.72
20394;BME280;10356;50.544;9.642;2023-03-20T12:38:30;98491.19;;;14.69;69.25
20394;BME280;10356;50.544;9.642;2023-03-20T12:41:01;98483.88;;;14.91;66.88
20394;BME280;10356;50.544;9.642;2023-03-20T12:43:38;98483.59;;;14.85;66.90
20394;BME280;10356;50.544;9.642;2023-03-20T12:46:22;98482.38;;;14.51;70.06
20394;BME280;10356;50.544;9.642;2023-03-20T12:48:58;98487.75;;;14.49;69.00
20394;BME280;10356;50.544;9.642;2023-03-20T12:51:37;98479.06;;;14.49;71.03
20394;BME280;10356;50.544;9.642;2023-03-20T12:54:18;98480.16;;;14.37;71.34
20394;BME280;10356;50.544;9.642;2023-03-20T12:56:58;98469.25;;;14.32;70.13
20394;BME280;10356;50.544;9.642;2023-03-20T12:59:34;98466.50;;;14.43;68.41
20394;BME280;10356;50.544;9.642;2023-03-20T13:02:15;98470.63;;;14.55;68.11
20394;BME280;10356;50.544;9.642;2023-03-20T13:05:00;98455.47;;;14.58;66.08
20394;BME280;10356;50.544;9.642;2023-03-20T13:07:40;98460.44;;;14.61;64.92
20394;BME280;10356;50.544;9.642;2023-03-20T13:10:19;98459.34;;;14.64;66.19
20394;BME280;10356;50.544;9.642;2023-03-20T13:12:56;98454.34;;;14.80;65.19
20394;BME280;10356;50.544;9.642;2023-03-20T13:15:39;98457.06;;;14.97;64.67